Aeroporto :
LOGIN :

Iscrizione | Disclaimer

   EN    FR    IT 

 










Sommario :    VFR   VFR Marginale   IFR   IFR Intensivo   IFR Molto Intensivo
Visibilità : 
Base nubi : 
>= 8 km
>= 3000ft
5 / 8 km
1000 / 3000 ft
1500m / 5 km
500 / 1000 ft
800 / 1500m
200 / 500 ft
< 800m
< 200 ft
Simboli :   Temporali  Nebbia  Neve Forte  Precipitazioni Forti  Vento > 20 kt
SIGMETs :   Varie  Temporali  Ghiacco  Turbolenza  Onda orograficha  Ceneri Vulcaniche






- Altitudine del aeroporto : 1260 ft
- Codice IATA : LDE


LFBT - Tarbes / Ossun

ULTIMO METAR :
  • 231200Z AUTO 23003KT 190V270 9999 OVC092 26/11 Q1010 NOSIG

METARs OBSOLETI :
  • 231130Z AUTO 11003KT 020V180 9999 SCT096 26/11 Q1010 NOSIG
  • 231100Z AUTO VRB02KT CAVOK 26/11 Q1010 NOSIG
  • 231030Z AUTO VRB03KT CAVOK 26/11 Q1010 NOSIG
  • 231000Z AUTO VRB02KT 9999 FEW074 25/12 Q1011 NOSIG
  • 230930Z AUTO 11005KT 090V150 9999 FEW072 24/12 Q1011 NOSIG
  • 230900Z AUTO 14004KT 110V170 CAVOK 23/12 Q1011 NOSIG

TAF TAF LFBT
Valido dal 23 a 12 ore il 24 a 12 ore UTC


231100Z 2312/2412 27010KT CAVOK
TEMPO 2315/2406 4000 SHRA BKN060TCU
TEMPO 2315/2318 30018G30KT
BECMG 2408/2410 BKN020



MetMap, La meteo Aeronautica in un colpo d'occhio ! - Copyright ORBIFLY Dicembre 2007 - Disclaimer

ORBIFLY MET'MAP TEAM :

Programmazione e sviluppo : Alexandra Zaïnal
Concezione : Baudouin d'Aumeries
Aiuto per la programmazione : Marc-Olivier Méhu
Supporto tecnico e logistico : Manuel Goepfert
Aiuto per la traduzione : Arnaldo La Scala

Contatto : metmap@orbifly.com




FONTI E CREDITI :

   NOAA